sensor_id;sensor_type;location;lat;lon;timestamp;pressure;altitude;pressure_sealevel;temperature;humidity
6532;BME280;3299;42.004;24.868;2023-07-24T00:00:53;98343.44;;;24.17;52.87
6532;BME280;3299;42.004;24.868;2023-07-24T00:03:18;98353.75;;;24.13;52.71
6532;BME280;3299;42.004;24.868;2023-07-24T00:05:43;98340.78;;;24.17;52.44
6532;BME280;3299;42.004;24.868;2023-07-24T00:08:09;98326.53;;;24.18;52.11
6532;BME280;3299;42.004;24.868;2023-07-24T00:10:34;98348.13;;;24.22;51.89
6532;BME280;3299;42.004;24.868;2023-07-24T00:12:59;98363.81;;;24.23;52.43
6532;BME280;3299;42.004;24.868;2023-07-24T00:15:26;98330.84;;;23.98;52.92
6532;BME280;3299;42.004;24.868;2023-07-24T00:17:51;98343.19;;;24.13;53.18
6532;BME280;3299;42.004;24.868;2023-07-24T00:20:17;98315.44;;;24.02;53.87
6532;BME280;3299;42.004;24.868;2023-07-24T00:22:42;98353.34;;;24.15;54.11
6532;BME280;3299;42.004;24.868;2023-07-24T00:25:08;98341.91;;;24.08;54.01
6532;BME280;3299;42.004;24.868;2023-07-24T00:27:34;98336.69;;;24.15;53.03
6532;BME280;3299;42.004;24.868;2023-07-24T00:29:59;98337.78;;;24.00;53.31
6532;BME280;3299;42.004;24.868;2023-07-24T00:32:25;98318.50;;;23.84;53.18
6532;BME280;3299;42.004;24.868;2023-07-24T00:34:50;98337.59;;;23.80;53.94
6532;BME280;3299;42.004;24.868;2023-07-24T00:37:15;98342.03;;;23.79;54.72
6532;BME280;3299;42.004;24.868;2023-07-24T00:39:41;98355.06;;;23.81;55.56
6532;BME280;3299;42.004;24.868;2023-07-24T00:42:06;98341.69;;;23.83;55.57
6532;BME280;3299;42.004;24.868;2023-07-24T00:44:32;98320.03;;;23.73;57.24
6532;BME280;3299;42.004;24.868;2023-07-24T00:46:57;98343.09;;;24.00;56.61
6532;BME280;3299;42.004;24.868;2023-07-24T00:49:23;98321.25;;;23.91;56.11
6532;BME280;3299;42.004;24.868;2023-07-24T00:51:49;98334.69;;;23.96;55.57
6532;BME280;3299;42.004;24.868;2023-07-24T00:54:16;98316.44;;;23.80;55.17
6532;BME280;3299;42.004;24.868;2023-07-24T00:56:43;98307.81;;;23.72;55.15
6532;BME280;3299;42.004;24.868;2023-07-24T00:59:10;98321.66;;;23.73;54.26
6532;BME280;3299;42.004;24.868;2023-07-24T01:01:37;98334.53;;;23.83;54.62
6532;BME280;3299;42.004;24.868;2023-07-24T01:04:03;98321.66;;;23.73;54.77
6532;BME280;3299;42.004;24.868;2023-07-24T01:06:30;98339.03;;;23.83;55.46
6532;BME280;3299;42.004;24.868;2023-07-24T01:08:56;98334.38;;;23.84;54.88
6532;BME280;3299;42.004;24.868;2023-07-24T01:11:28;98302.28;;;23.67;55.41
6532;BME280;3299;42.004;24.868;2023-07-24T01:14:04;98340.22;;;23.80;55.51
6532;BME280;3299;42.004;24.868;2023-07-24T01:16:37;98317.53;;;23.65;55.09
6532;BME280;3299;42.004;24.868;2023-07-24T01:19:11;98338.78;;;23.77;55.41
6532;BME280;3299;42.004;24.868;2023-07-24T01:21:54;98348.97;;;23.80;55.03
6532;BME280;3299;42.004;24.868;2023-07-24T01:24:33;98310.03;;;23.47;55.50
6532;BME280;3299;42.004;24.868;2023-07-24T01:27:00;98330.03;;;23.56;56.73
6532;BME280;3299;42.004;24.868;2023-07-24T01:29:26;98321.34;;;23.41;56.99
6532;BME280;3299;42.004;24.868;2023-07-24T01:31:51;98330.09;;;23.42;56.19
6532;BME280;3299;42.004;24.868;2023-07-24T01:34:16;98304.34;;;23.29;55.50
6532;BME280;3299;42.004;24.868;2023-07-24T01:36:42;98323.84;;;23.49;55.29
6532;BME280;3299;42.004;24.868;2023-07-24T01:39:08;98324.53;;;23.58;55.25
6532;BME280;3299;42.004;24.868;2023-07-24T01:41:34;98349.16;;;23.79;54.79
6532;BME280;3299;42.004;24.868;2023-07-24T01:44:00;98348.03;;;23.67;55.20
6532;BME280;3299;42.004;24.868;2023-07-24T01:46:25;98320.16;;;23.44;55.21
6532;BME280;3299;42.004;24.868;2023-07-24T01:48:50;98351.66;;;23.66;54.99
6532;BME280;3299;42.004;24.868;2023-07-24T01:51:17;98339.97;;;23.54;55.44
6532;BME280;3299;42.004;24.868;2023-07-24T01:53:43;98317.69;;;23.42;56.02
6532;BME280;3299;42.004;24.868;2023-07-24T01:56:08;98348.72;;;23.55;55.45
6532;BME280;3299;42.004;24.868;2023-07-24T01:58:33;98338.03;;;23.42;56.59
6532;BME280;3299;42.004;24.868;2023-07-24T02:00:59;98326.19;;;23.38;55.65
6532;BME280;3299;42.004;24.868;2023-07-24T02:03:25;98335.28;;;23.35;55.23
6532;BME280;3299;42.004;24.868;2023-07-24T02:05:50;98345.69;;;23.37;55.23
6532;BME280;3299;42.004;24.868;2023-07-24T02:08:16;98338.16;;;23.19;57.49
6532;BME280;3299;42.004;24.868;2023-07-24T02:10:42;98359.72;;;23.23;58.88
6532;BME280;3299;42.004;24.868;2023-07-24T02:13:07;98328.69;;;23.10;56.85
6532;BME280;3299;42.004;24.868;2023-07-24T02:15:33;98320.94;;;23.09;57.05
6532;BME280;3299;42.004;24.868;2023-07-24T02:17:58;98313.38;;;23.06;57.78
6532;BME280;3299;42.004;24.868;2023-07-24T02:20:23;98309.84;;;22.99;56.88
6532;BME280;3299;42.004;24.868;2023-07-24T02:22:49;98330.78;;;23.00;57.57
6532;BME280;3299;42.004;24.868;2023-07-24T02:25:14;98309.34;;;22.89;58.65
6532;BME280;3299;42.004;24.868;2023-07-24T02:27:40;98316.53;;;22.95;59.64
6532;BME280;3299;42.004;24.868;2023-07-24T02:30:05;98333.25;;;23.02;59.25
6532;BME280;3299;42.004;24.868;2023-07-24T02:32:31;98326.38;;;22.86;60.05
6532;BME280;3299;42.004;24.868;2023-07-24T02:34:57;98323.34;;;22.75;61.22
6532;BME280;3299;42.004;24.868;2023-07-24T02:37:22;98321.34;;;22.77;60.23
6532;BME280;3299;42.004;24.868;2023-07-24T02:39:48;98315.16;;;22.70;59.74
6532;BME280;3299;42.004;24.868;2023-07-24T02:42:13;98310.72;;;22.70;58.91
6532;BME280;3299;42.004;24.868;2023-07-24T02:44:38;98330.19;;;22.84;58.16
6532;BME280;3299;42.004;24.868;2023-07-24T02:47:04;98312.81;;;22.75;57.74
6532;BME280;3299;42.004;24.868;2023-07-24T02:49:29;98333.56;;;22.78;59.34
6532;BME280;3299;42.004;24.868;2023-07-24T02:51:55;98337.38;;;22.75;59.09
6532;BME280;3299;42.004;24.868;2023-07-24T02:54:20;98333.91;;;22.75;59.20
6532;BME280;3299;42.004;24.868;2023-07-24T02:56:46;98347.09;;;22.89;59.60
6532;BME280;3299;42.004;24.868;2023-07-24T02:59:11;98320.63;;;22.68;59.76
6532;BME280;3299;42.004;24.868;2023-07-24T03:01:37;98354.22;;;22.89;59.97
6532;BME280;3299;42.004;24.868;2023-07-24T03:04:02;98357.47;;;22.91;59.50
6532;BME280;3299;42.004;24.868;2023-07-24T03:06:28;98344.84;;;22.72;60.09
6532;BME280;3299;42.004;24.868;2023-07-24T03:08:53;98315.63;;;22.59;59.20
6532;BME280;3299;42.004;24.868;2023-07-24T03:11:19;98332.63;;;22.71;59.27
6532;BME280;3299;42.004;24.868;2023-07-24T03:13:44;98321.34;;;22.62;60.12
6532;BME280;3299;42.004;24.868;2023-07-24T03:16:09;98352.22;;;22.76;61.46
6532;BME280;3299;42.004;24.868;2023-07-24T03:18:35;98357.94;;;22.80;62.40
6532;BME280;3299;42.004;24.868;2023-07-24T03:21:00;98346.81;;;22.70;62.01
6532;BME280;3299;42.004;24.868;2023-07-24T03:23:26;98324.19;;;22.46;62.10
6532;BME280;3299;42.004;24.868;2023-07-24T03:25:51;98333.19;;;22.52;62.30
6532;BME280;3299;42.004;24.868;2023-07-24T03:28:17;98332.00;;;22.54;62.09
6532;BME280;3299;42.004;24.868;2023-07-24T03:30:42;98333.13;;;22.60;60.83
6532;BME280;3299;42.004;24.868;2023-07-24T03:33:07;98321.91;;;22.58;60.83
6532;BME280;3299;42.004;24.868;2023-07-24T03:35:33;98324.38;;;22.74;60.21
6532;BME280;3299;42.004;24.868;2023-07-24T03:37:59;98342.38;;;22.85;59.66
6532;BME280;3299;42.004;24.868;2023-07-24T03:40:25;98340.19;;;22.59;61.88
6532;BME280;3299;42.004;24.868;2023-07-24T03:42:50;98317.47;;;22.44;63.62
6532;BME280;3299;42.004;24.868;2023-07-24T03:45:15;98314.09;;;22.50;63.44
6532;BME280;3299;42.004;24.868;2023-07-24T03:47:41;98331.47;;;22.59;61.53
6532;BME280;3299;42.004;24.868;2023-07-24T03:50:06;98350.03;;;22.80;60.46
6532;BME280;3299;42.004;24.868;2023-07-24T03:52:32;98349.00;;;22.81;60.93
6532;BME280;3299;42.004;24.868;2023-07-24T03:54:57;98354.56;;;22.86;60.32
6532;BME280;3299;42.004;24.868;2023-07-24T03:57:22;98327.00;;;22.74;61.60
6532;BME280;3299;42.004;24.868;2023-07-24T03:59:48;98342.72;;;22.82;62.24
6532;BME280;3299;42.004;24.868;2023-07-24T04:02:13;98362.44;;;23.15;61.69
6532;BME280;3299;42.004;24.868;2023-07-24T04:04:39;98338.25;;;22.97;61.64
6532;BME280;3299;42.004;24.868;2023-07-24T04:07:05;98343.34;;;23.13;59.84
6532;BME280;3299;42.004;24.868;2023-07-24T04:09:30;98369.44;;;23.37;59.66
6532;BME280;3299;42.004;24.868;2023-07-24T04:11:56;98328.03;;;23.23;59.05
6532;BME280;3299;42.004;24.868;2023-07-24T04:14:21;98333.84;;;23.33;58.78
6532;BME280;3299;42.004;24.868;2023-07-24T04:16:47;98342.91;;;23.45;58.61
6532;BME280;3299;42.004;24.868;2023-07-24T04:19:12;98331.81;;;23.35;59.61
6532;BME280;3299;42.004;24.868;2023-07-24T04:21:37;98357.66;;;23.54;59.08
6532;BME280;3299;42.004;24.868;2023-07-24T04:24:03;98338.19;;;23.40;58.03
6532;BME280;3299;42.004;24.868;2023-07-24T04:26:28;98354.34;;;23.52;57.72
6532;BME280;3299;42.004;24.868;2023-07-24T04:28:54;98357.38;;;23.69;56.57
6532;BME280;3299;42.004;24.868;2023-07-24T04:31:19;98328.38;;;23.55;56.35
6532;BME280;3299;42.004;24.868;2023-07-24T04:33:45;98371.19;;;23.86;56.38
6532;BME280;3299;42.004;24.868;2023-07-24T04:36:10;98377.19;;;23.95;56.53
6532;BME280;3299;42.004;24.868;2023-07-24T04:38:35;98369.47;;;23.78;56.59
6532;BME280;3299;42.004;24.868;2023-07-24T04:41:01;98362.00;;;23.82;57.07
6532;BME280;3299;42.004;24.868;2023-07-24T04:43:29;98370.69;;;23.76;56.73
6532;BME280;3299;42.004;24.868;2023-07-24T04:45:55;98362.81;;;23.83;56.45
6532;BME280;3299;42.004;24.868;2023-07-24T04:48:20;98354.97;;;23.89;56.72
6532;BME280;3299;42.004;24.868;2023-07-24T04:50:46;98370.00;;;24.09;56.99
6532;BME280;3299;42.004;24.868;2023-07-24T04:53:11;98372.50;;;24.17;56.57
6532;BME280;3299;42.004;24.868;2023-07-24T04:55:36;98362.03;;;24.30;57.02
6532;BME280;3299;42.004;24.868;2023-07-24T04:58:02;98397.28;;;24.58;56.04
6532;BME280;3299;42.004;24.868;2023-07-24T05:00:27;98400.25;;;24.76;54.40
6532;BME280;3299;42.004;24.868;2023-07-24T05:02:53;98394.41;;;24.87;55.58
6532;BME280;3299;42.004;24.868;2023-07-24T05:05:18;98392.66;;;25.07;56.98
6532;BME280;3299;42.004;24.868;2023-07-24T05:07:44;98365.81;;;25.10;58.99
6532;BME280;3299;42.004;24.868;2023-07-24T05:10:09;98397.94;;;25.41;59.33
6532;BME280;3299;42.004;24.868;2023-07-24T05:12:34;98396.31;;;25.40;59.57
6532;BME280;3299;42.004;24.868;2023-07-24T05:15:00;98395.97;;;25.16;57.37
6532;BME280;3299;42.004;24.868;2023-07-24T05:17:25;98402.94;;;25.23;54.14
6532;BME280;3299;42.004;24.868;2023-07-24T05:19:51;98380.91;;;25.16;53.58
6532;BME280;3299;42.004;24.868;2023-07-24T05:22:16;98415.25;;;25.37;54.18
6532;BME280;3299;42.004;24.868;2023-07-24T05:24:41;98410.63;;;25.52;54.22
6532;BME280;3299;42.004;24.868;2023-07-24T05:27:07;98408.38;;;25.56;54.47
6532;BME280;3299;42.004;24.868;2023-07-24T05:29:32;98401.06;;;25.64;52.83
6532;BME280;3299;42.004;24.868;2023-07-24T05:31:57;98371.50;;;25.61;52.70
6532;BME280;3299;42.004;24.868;2023-07-24T05:34:24;98400.72;;;25.80;52.23
6532;BME280;3299;42.004;24.868;2023-07-24T05:36:49;98375.00;;;25.74;52.22
6532;BME280;3299;42.004;24.868;2023-07-24T05:39:15;98406.09;;;26.13;53.97
6532;BME280;3299;42.004;24.868;2023-07-24T05:41:40;98407.50;;;26.09;53.02
6532;BME280;3299;42.004;24.868;2023-07-24T05:44:06;98413.00;;;26.07;55.69
6532;BME280;3299;42.004;24.868;2023-07-24T05:46:31;98413.44;;;26.24;55.49
6532;BME280;3299;42.004;24.868;2023-07-24T05:48:56;98399.53;;;26.22;54.77
6532;BME280;3299;42.004;24.868;2023-07-24T05:51:22;98418.34;;;26.46;55.20
6532;BME280;3299;42.004;24.868;2023-07-24T05:53:48;98412.00;;;26.60;55.97
6532;BME280;3299;42.004;24.868;2023-07-24T05:56:13;98415.50;;;26.67;57.37
6532;BME280;3299;42.004;24.868;2023-07-24T05:58:39;98384.63;;;26.53;57.76
6532;BME280;3299;42.004;24.868;2023-07-24T06:01:04;98414.69;;;26.73;58.40
6532;BME280;3299;42.004;24.868;2023-07-24T06:03:29;98386.09;;;26.62;58.49
6532;BME280;3299;42.004;24.868;2023-07-24T06:05:55;98373.22;;;26.66;57.57
6532;BME280;3299;42.004;24.868;2023-07-24T06:08:22;98379.91;;;26.81;58.13
6532;BME280;3299;42.004;24.868;2023-07-24T06:10:48;98390.69;;;26.99;57.49
6532;BME280;3299;42.004;24.868;2023-07-24T06:13:15;98404.34;;;27.22;57.54
6532;BME280;3299;42.004;24.868;2023-07-24T06:15:40;98380.25;;;27.17;57.65
6532;BME280;3299;42.004;24.868;2023-07-24T06:18:06;98368.41;;;27.00;57.79
6532;BME280;3299;42.004;24.868;2023-07-24T06:20:31;98392.72;;;27.17;58.67
6532;BME280;3299;42.004;24.868;2023-07-24T06:22:56;98349.22;;;27.05;61.17
6532;BME280;3299;42.004;24.868;2023-07-24T06:25:22;98377.00;;;27.02;64.98
6532;BME280;3299;42.004;24.868;2023-07-24T06:27:47;98355.38;;;26.92;64.88
6532;BME280;3299;42.004;24.868;2023-07-24T06:30:13;98362.19;;;26.56;66.38
6532;BME280;3299;42.004;24.868;2023-07-24T06:32:38;98348.94;;;26.49;67.97
6532;BME280;3299;42.004;24.868;2023-07-24T06:35:04;98361.41;;;26.16;67.10
6532;BME280;3299;42.004;24.868;2023-07-24T06:37:29;98347.31;;;26.22;65.61
6532;BME280;3299;42.004;24.868;2023-07-24T06:39:55;98371.97;;;26.42;66.50
6532;BME280;3299;42.004;24.868;2023-07-24T06:42:20;98350.97;;;26.34;65.83
6532;BME280;3299;42.004;24.868;2023-07-24T06:44:45;98344.47;;;26.17;68.84
6532;BME280;3299;42.004;24.868;2023-07-24T06:47:11;98373.25;;;26.20;68.56
6532;BME280;3299;42.004;24.868;2023-07-24T06:49:36;98373.84;;;26.35;67.88
6532;BME280;3299;42.004;24.868;2023-07-24T06:52:02;98359.31;;;26.51;67.66
6532;BME280;3299;42.004;24.868;2023-07-24T06:54:27;98344.84;;;26.60;68.54
6532;BME280;3299;42.004;24.868;2023-07-24T06:56:53;98376.44;;;26.87;67.98
6532;BME280;3299;42.004;24.868;2023-07-24T06:59:18;98354.25;;;26.62;68.70
6532;BME280;3299;42.004;24.868;2023-07-24T07:01:43;98368.47;;;26.81;68.45
6532;BME280;3299;42.004;24.868;2023-07-24T07:04:09;98364.38;;;26.85;67.96
6532;BME280;3299;42.004;24.868;2023-07-24T07:06:34;98369.19;;;27.14;67.00
6532;BME280;3299;42.004;24.868;2023-07-24T07:09:00;98366.94;;;27.24;64.65
6532;BME280;3299;42.004;24.868;2023-07-24T07:11:25;98361.16;;;27.33;64.03
6532;BME280;3299;42.004;24.868;2023-07-24T07:13:50;98349.63;;;27.52;63.20
6532;BME280;3299;42.004;24.868;2023-07-24T07:16:17;98347.56;;;27.54;61.85
6532;BME280;3299;42.004;24.868;2023-07-24T07:18:44;98362.63;;;27.67;62.67
6532;BME280;3299;42.004;24.868;2023-07-24T07:21:09;98328.22;;;27.41;63.08
6532;BME280;3299;42.004;24.868;2023-07-24T07:23:35;98339.41;;;27.49;63.43
6532;BME280;3299;42.004;24.868;2023-07-24T07:26:00;98359.38;;;27.65;63.19
6532;BME280;3299;42.004;24.868;2023-07-24T07:28:25;98325.94;;;27.44;62.84
6532;BME280;3299;42.004;24.868;2023-07-24T07:30:51;98354.00;;;27.78;61.34
6532;BME280;3299;42.004;24.868;2023-07-24T07:33:16;98355.78;;;27.84;60.77
6532;BME280;3299;42.004;24.868;2023-07-24T07:35:42;98338.97;;;27.90;59.38
6532;BME280;3299;42.004;24.868;2023-07-24T07:38:08;98342.69;;;28.13;58.59
6532;BME280;3299;42.004;24.868;2023-07-24T07:40:33;98328.78;;;28.29;57.77
6532;BME280;3299;42.004;24.868;2023-07-24T07:42:58;98338.94;;;28.45;56.63
6532;BME280;3299;42.004;24.868;2023-07-24T07:45:24;98323.09;;;28.50;56.54
6532;BME280;3299;42.004;24.868;2023-07-24T07:47:49;98316.91;;;28.56;56.20
6532;BME280;3299;42.004;24.868;2023-07-24T07:50:15;98339.03;;;28.75;56.11
6532;BME280;3299;42.004;24.868;2023-07-24T07:52:40;98345.03;;;28.88;56.05
6532;BME280;3299;42.004;24.868;2023-07-24T07:55:06;98309.13;;;28.73;55.46
6532;BME280;3299;42.004;24.868;2023-07-24T07:57:35;98338.41;;;28.97;55.64
6532;BME280;3299;42.004;24.868;2023-07-24T08:00:04;98324.03;;;28.98;54.91
6532;BME280;3299;42.004;24.868;2023-07-24T08:02:31;98307.03;;;28.99;54.77
6532;BME280;3299;42.004;24.868;2023-07-24T08:04:57;98327.31;;;29.00;54.67
6532;BME280;3299;42.004;24.868;2023-07-24T08:07:22;98347.72;;;29.06;55.01
6532;BME280;3299;42.004;24.868;2023-07-24T08:09:48;98308.50;;;28.95;54.88
6532;BME280;3299;42.004;24.868;2023-07-24T08:12:13;98329.28;;;29.05;53.99
6532;BME280;3299;42.004;24.868;2023-07-24T08:14:38;98304.47;;;28.86;54.03
6532;BME280;3299;42.004;24.868;2023-07-24T08:17:04;98323.44;;;28.96;54.22
6532;BME280;3299;42.004;24.868;2023-07-24T08:19:30;98318.69;;;28.98;53.81
6532;BME280;3299;42.004;24.868;2023-07-24T08:21:55;98340.97;;;29.22;53.99
6532;BME280;3299;42.004;24.868;2023-07-24T08:24:20;98300.03;;;29.16;54.07
6532;BME280;3299;42.004;24.868;2023-07-24T08:26:46;98333.91;;;29.27;53.76
6532;BME280;3299;42.004;24.868;2023-07-24T08:29:15;98292.28;;;29.15;53.37
6532;BME280;3299;42.004;24.868;2023-07-24T08:31:40;98297.22;;;29.41;53.14
6532;BME280;3299;42.004;24.868;2023-07-24T08:34:05;98304.03;;;29.55;52.48
6532;BME280;3299;42.004;24.868;2023-07-24T08:36:31;98307.09;;;29.70;51.63
6532;BME280;3299;42.004;24.868;2023-07-24T08:38:56;98297.94;;;29.77;51.67
6532;BME280;3299;42.004;24.868;2023-07-24T08:41:21;98329.09;;;30.06;51.44
6532;BME280;3299;42.004;24.868;2023-07-24T08:43:47;98317.53;;;30.12;51.55
6532;BME280;3299;42.004;24.868;2023-07-24T08:46:15;98319.25;;;30.18;51.40
6532;BME280;3299;42.004;24.868;2023-07-24T08:48:42;98332.59;;;30.30;51.46
6532;BME280;3299;42.004;24.868;2023-07-24T08:51:10;98316.34;;;30.31;50.83
6532;BME280;3299;42.004;24.868;2023-07-24T08:53:37;98314.03;;;30.23;50.59
6532;BME280;3299;42.004;24.868;2023-07-24T08:56:04;98311.53;;;29.99;51.34
6532;BME280;3299;42.004;24.868;2023-07-24T08:58:30;98281.97;;;30.00;50.70
6532;BME280;3299;42.004;24.868;2023-07-24T09:01:00;98280.00;;;29.96;51.40
6532;BME280;3299;42.004;24.868;2023-07-24T09:03:26;98310.34;;;30.13;52.10
6532;BME280;3299;42.004;24.868;2023-07-24T09:05:51;98311.50;;;30.28;50.79
6532;BME280;3299;42.004;24.868;2023-07-24T09:08:28;98282.47;;;30.20;50.46
6532;BME280;3299;42.004;24.868;2023-07-24T09:10:53;98278.84;;;30.26;50.68
6532;BME280;3299;42.004;24.868;2023-07-24T09:13:19;98285.81;;;30.39;50.16
6532;BME280;3299;42.004;24.868;2023-07-24T09:15:44;98277.34;;;30.30;50.69
6532;BME280;3299;42.004;24.868;2023-07-24T09:18:10;98299.63;;;30.47;50.64
6532;BME280;3299;42.004;24.868;2023-07-24T09:20:40;98265.84;;;30.41;50.32
6532;BME280;3299;42.004;24.868;2023-07-24T09:23:07;98280.13;;;30.58;50.47
6532;BME280;3299;42.004;24.868;2023-07-24T09:25:35;98296.13;;;30.81;50.46
6532;BME280;3299;42.004;24.868;2023-07-24T09:28:08;98269.75;;;30.73;49.54
6532;BME280;3299;42.004;24.868;2023-07-24T09:30:33;98294.78;;;31.07;48.48
6532;BME280;3299;42.004;24.868;2023-07-24T09:32:59;98265.50;;;31.00;48.42
6532;BME280;3299;42.004;24.868;2023-07-24T09:35:24;98269.19;;;31.11;48.42
6532;BME280;3299;42.004;24.868;2023-07-24T09:38:22;98292.28;;;31.28;48.54
6532;BME280;3299;42.004;24.868;2023-07-24T09:40:47;98272.66;;;31.23;48.86
6532;BME280;3299;42.004;24.868;2023-07-24T09:43:22;98278.84;;;31.40;48.82
6532;BME280;3299;42.004;24.868;2023-07-24T09:45:49;98255.28;;;31.37;48.12
6532;BME280;3299;42.004;24.868;2023-07-24T09:48:16;98279.56;;;31.63;47.04
6532;BME280;3299;42.004;24.868;2023-07-24T09:50:43;98231.53;;;31.40;47.73
6532;BME280;3299;42.004;24.868;2023-07-24T09:53:17;98254.03;;;31.72;47.80
6532;BME280;3299;42.004;24.868;2023-07-24T09:56:09;98230.06;;;31.49;47.46
6532;BME280;3299;42.004;24.868;2023-07-24T09:58:38;98215.53;;;31.73;48.35
6532;BME280;3299;42.004;24.868;2023-07-24T10:01:06;98232.97;;;31.76;48.15
6532;BME280;3299;42.004;24.868;2023-07-24T10:03:37;98246.47;;;31.69;48.57
6532;BME280;3299;42.004;24.868;2023-07-24T10:06:04;98214.91;;;31.71;48.65
6532;BME280;3299;42.004;24.868;2023-07-24T10:08:30;98239.84;;;31.88;47.85
6532;BME280;3299;42.004;24.868;2023-07-24T10:10:58;98228.75;;;31.96;47.73
6532;BME280;3299;42.004;24.868;2023-07-24T10:13:26;98228.47;;;32.14;46.59
6532;BME280;3299;42.004;24.868;2023-07-24T10:15:52;98234.22;;;32.06;44.70
6532;BME280;3299;42.004;24.868;2023-07-24T10:18:27;98215.66;;;32.00;45.43
6532;BME280;3299;42.004;24.868;2023-07-24T10:21:03;98205.41;;;32.13;44.87
6532;BME280;3299;42.004;24.868;2023-07-24T10:23:30;98192.00;;;32.13;43.07
6532;BME280;3299;42.004;24.868;2023-07-24T10:25:55;98205.03;;;32.43;43.13
6532;BME280;3299;42.004;24.868;2023-07-24T10:28:31;98197.06;;;32.48;42.03
6532;BME280;3299;42.004;24.868;2023-07-24T10:30:57;98204.72;;;32.82;43.29
6532;BME280;3299;42.004;24.868;2023-07-24T10:33:22;98189.31;;;32.94;42.79
6532;BME280;3299;42.004;24.868;2023-07-24T10:35:52;98201.94;;;33.20;41.87
6532;BME280;3299;42.004;24.868;2023-07-24T10:38:18;98192.03;;;33.26;42.14
6532;BME280;3299;42.004;24.868;2023-07-24T10:40:45;98201.41;;;33.50;41.26
6532;BME280;3299;42.004;24.868;2023-07-24T10:43:13;98202.31;;;33.60;40.39
6532;BME280;3299;42.004;24.868;2023-07-24T10:48:07;98187.91;;;33.71;40.97
6532;BME280;3299;42.004;24.868;2023-07-24T10:50:40;98166.78;;;33.85;40.37
6532;BME280;3299;42.004;24.868;2023-07-24T10:53:06;98176.69;;;34.21;39.28
6532;BME280;3299;42.004;24.868;2023-07-24T10:55:32;98182.53;;;34.54;37.44
6532;BME280;3299;42.004;24.868;2023-07-24T10:57:57;98154.56;;;34.55;37.52
6532;BME280;3299;42.004;24.868;2023-07-24T11:00:23;98168.13;;;34.85;37.25
6532;BME280;3299;42.004;24.868;2023-07-24T11:02:49;98171.94;;;35.04;37.38
6532;BME280;3299;42.004;24.868;2023-07-24T11:05:14;98157.41;;;35.10;36.26
6532;BME280;3299;42.004;24.868;2023-07-24T11:07:41;98163.59;;;35.21;35.52
6532;BME280;3299;42.004;24.868;2023-07-24T11:10:20;98158.25;;;35.46;36.18
6532;BME280;3299;42.004;24.868;2023-07-24T11:12:46;98139.69;;;35.34;34.83
6532;BME280;3299;42.004;24.868;2023-07-24T11:15:13;98150.44;;;35.64;33.07
6532;BME280;3299;42.004;24.868;2023-07-24T11:17:41;98145.59;;;35.76;32.15
6532;BME280;3299;42.004;24.868;2023-07-24T11:20:12;98141.78;;;35.97;31.07
6532;BME280;3299;42.004;24.868;2023-07-24T11:22:42;98164.38;;;36.16;31.43
6532;BME280;3299;42.004;24.868;2023-07-24T11:25:08;98141.75;;;36.22;30.20
6532;BME280;3299;42.004;24.868;2023-07-24T11:27:39;98165.34;;;36.50;29.88
6532;BME280;3299;42.004;24.868;2023-07-24T11:30:07;98136.75;;;36.49;30.24
6532;BME280;3299;42.004;24.868;2023-07-24T11:32:33;98152.66;;;36.56;30.14
6532;BME280;3299;42.004;24.868;2023-07-24T11:34:59;98144.81;;;36.64;30.38
6532;BME280;3299;42.004;24.868;2023-07-24T11:37:25;98122.81;;;36.37;30.10
6532;BME280;3299;42.004;24.868;2023-07-24T11:39:56;98122.00;;;36.37;31.04
6532;BME280;3299;42.004;24.868;2023-07-24T11:42:24;98134.19;;;36.14;30.86
6532;BME280;3299;42.004;24.868;2023-07-24T11:44:50;98128.41;;;36.51;29.58
6532;BME280;3299;42.004;24.868;2023-07-24T11:47:15;98131.03;;;36.71;29.94
6532;BME280;3299;42.004;24.868;2023-07-24T11:49:42;98137.53;;;36.65;29.31
6532;BME280;3299;42.004;24.868;2023-07-24T11:52:13;98135.22;;;36.87;29.57
6532;BME280;3299;42.004;24.868;2023-07-24T11:54:38;98134.88;;;37.08;29.41
6532;BME280;3299;42.004;24.868;2023-07-24T11:57:14;98121.81;;;36.77;28.28
6532;BME280;3299;42.004;24.868;2023-07-24T11:59:41;98127.47;;;36.80;28.20
6532;BME280;3299;42.004;24.868;2023-07-24T12:02:10;98124.66;;;36.95;29.04
6532;BME280;3299;42.004;24.868;2023-07-24T12:04:36;98108.03;;;36.78;28.57
6532;BME280;3299;42.004;24.868;2023-07-24T12:07:07;98123.97;;;36.75;28.63
6532;BME280;3299;42.004;24.868;2023-07-24T12:09:33;98115.28;;;36.88;28.52
6532;BME280;3299;42.004;24.868;2023-07-24T12:11:59;98127.75;;;37.17;28.77
6532;BME280;3299;42.004;24.868;2023-07-24T12:14:24;98102.63;;;37.22;28.48
6532;BME280;3299;42.004;24.868;2023-07-24T12:17:02;98102.97;;;37.44;28.48
6532;BME280;3299;42.004;24.868;2023-07-24T12:19:28;98097.69;;;37.62;27.08
6532;BME280;3299;42.004;24.868;2023-07-24T12:21:53;98128.75;;;37.88;27.74
6532;BME280;3299;42.004;24.868;2023-07-24T12:24:19;98103.69;;;37.54;27.34
6532;BME280;3299;42.004;24.868;2023-07-24T12:26:44;98098.91;;;37.46;27.08
6532;BME280;3299;42.004;24.868;2023-07-24T12:29:09;98093.72;;;37.50;27.21
6532;BME280;3299;42.004;24.868;2023-07-24T12:31:35;98114.78;;;37.19;26.92
6532;BME280;3299;42.004;24.868;2023-07-24T12:34:00;98120.09;;;37.29;26.87
6532;BME280;3299;42.004;24.868;2023-07-24T12:36:26;98099.75;;;37.42;26.14
6532;BME280;3299;42.004;24.868;2023-07-24T12:38:52;98104.47;;;37.60;26.61
6532;BME280;3299;42.004;24.868;2023-07-24T12:41:17;98088.13;;;37.75;27.55
6532;BME280;3299;42.004;24.868;2023-07-24T12:43:43;98083.34;;;37.90;26.47
6532;BME280;3299;42.004;24.868;2023-07-24T12:46:09;98092.97;;;38.01;26.42
6532;BME280;3299;42.004;24.868;2023-07-24T12:48:34;98079.69;;;38.05;24.82
6532;BME280;3299;42.004;24.868;2023-07-24T12:51:01;98075.78;;;38.16;25.98
6532;BME280;3299;42.004;24.868;2023-07-24T12:53:26;98104.97;;;38.37;25.84
6532;BME280;3299;42.004;24.868;2023-07-24T12:55:52;98092.66;;;38.68;25.49
6532;BME280;3299;42.004;24.868;2023-07-24T12:58:18;98066.34;;;38.13;24.45
6532;BME280;3299;42.004;24.868;2023-07-24T13:00:43;98067.66;;;38.34;26.30
6532;BME280;3299;42.004;24.868;2023-07-24T13:03:08;98090.91;;;38.77;24.42
6532;BME280;3299;42.004;24.868;2023-07-24T13:05:34;98091.03;;;39.04;24.09
6532;BME280;3299;42.004;24.868;2023-07-24T13:07:59;98088.50;;;38.94;24.67